Home   Weather   India   Surat   Past weeks
Flag for India

Past Weather in Surat, Gujarat, India — Yesterday and Last 2 Weeks

Currently: 61 °F. Clear. (Weather station: Ahmadabad Airport, India). See more current weather

Past Weather in Surat — Graph

°F

Surat Temperature Yesterday

Maximum temperature yesterday: 86 °F (at 2:30 pm)
Minimum temperature yesterday: 64 °F (at 6:30 am)
Average temperature yesterday: 74 °F

High & Low Weather Summary for the Past Weeks

 TemperatureHumidityPressure
High90 °F (Nov 27, 2:00 pm)88% (Nov 28, 4:30 am)30.04 "Hg (Nov 28, 4:30 am)
Low57 °F (Nov 28, 7:00 am)25% (Nov 24, 4:00 pm)29.77 "Hg (Nov 27, 3:00 pm)
Average74 °F54%29.91 "Hg
* Reported Nov 23 7:30 am — Dec 8 7:30 am, Surat. Weather by CustomWeather, © 2022

Note: Actual official high and low records may vary slightly from our data, if they occured in-between our weather recording intervals... More about our weather records

Surat Weather History for the Previous 24 Hours

Scroll right to see more
 ConditionsComfort  
Time TempWeatherWind HumidityBarometerVisibility
7:30 am
Thu, Dec 8
61 °FClear.7 mph59%29.98 "Hg1 mi
7:00 am61 °FClear.7 mph59%29.95 "Hg2 mi
6:30 am61 °FClear.6 mph59%29.95 "Hg2 mi
5:00 am63 °FClear.6 mph59%29.92 "Hg2 mi
4:30 am63 °FClear.5 mph59%29.92 "Hg2 mi
4:00 am63 °FClear.5 mph64%29.92 "Hg2 mi
3:30 am64 °FClear.5 mph60%29.92 "Hg2 mi
3:00 am64 °FClear.2 mph60%29.95 "Hg2 mi
2:30 am64 °FClear.3 mph64%29.95 "Hg2 mi
2:00 am66 °FClear.3 mph60%29.95 "Hg2 mi
1:30 am68 °FClear.3 mph56%29.95 "Hg2 mi
1:00 am68 °FClear.5 mph60%29.95 "Hg2 mi
12:30 am70 °FClear.3 mph57%29.95 "Hg2 mi
12:00 am70 °FClear.3 mph57%29.95 "Hg2 mi
11:30 pm
Wed, Dec 7
72 °FClear.2 mph53%29.95 "Hg2 mi
11:00 pm72 °FClear.2 mph53%29.95 "Hg2 mi
10:30 pm72 °FClear.3 mph53%29.95 "Hg2 mi
10:00 pm72 °FClear.3 mph57%29.95 "Hg2 mi
9:30 pm73 °FClear.3 mph53%29.95 "Hg2 mi
9:00 pm73 °FClear.2 mph53%29.95 "Hg2 mi
8:30 pm73 °FClear.3 mph57%29.95 "Hg2 mi
8:00 pm75 °FClear.5 mph50%29.95 "Hg2 mi
7:00 pm77 °FClear.3 mph51%29.92 "Hg2 mi
6:30 pm79 °FClear.5 mph48%29.92 "Hg2 mi
6:00 pm82 °FClear.6 mph42%29.92 "Hg2 mi
5:30 pm82 °FClear.7 mph42%29.92 "Hg2 mi
4:30 pm84 °FClear.7 mph40%29.89 "Hg3 mi
3:30 pm86 °FClear.9 mph38%29.89 "Hg3 mi
3:00 pm86 °FClear.8 mph40%29.89 "Hg3 mi
2:30 pm86 °FClear.8 mph40%29.89 "Hg3 mi
2:00 pm84 °FClear.8 mph43%29.92 "Hg3 mi
1:30 pm84 °FClear.10 mph43%29.92 "Hg3 mi
1:00 pm84 °FClear.10 mph40%29.95 "Hg3 mi
12:30 pm82 °FClear.13 mph42%29.95 "Hg3 mi
12:00 pm81 °FClear.12 mph42%29.98 "Hg2 mi
11:30 am79 °FClear.13 mph45%29.98 "Hg2 mi
11:00 am77 °FClear.12 mph47%30.01 "Hg2 mi
10:30 am75 °FClear.12 mph47%30.01 "Hg2 mi
10:00 am73 °FClear.13 mph53%30.01 "Hg2 mi
9:30 am72 °FHaze.10 mph57%30.01 "Hg2 mi
9:00 am68 °FHaze.12 mph64%30.01 "Hg2 mi
8:30 am66 °FHaze.9 mph64%29.98 "Hg1 mi
8:00 am66 °FHaze.10 mph68%29.98 "Hg1 mi
Weather by CustomWeather, © 2022

See weather overview